createdAt,value
2019-05-12T00:00:33.776Z,5.70
2019-05-12T00:03:04.015Z,4.93
2019-05-12T00:05:34.196Z,6.07
2019-05-12T00:08:04.466Z,5.03
2019-05-12T00:10:34.707Z,7.77
2019-05-12T00:13:04.909Z,5.97
2019-05-12T00:15:35.200Z,6.23
2019-05-12T00:18:05.474Z,5.57
2019-05-12T00:20:35.648Z,4.40
2019-05-12T00:23:23.174Z,7.17
2019-05-12T00:25:38.950Z,6.10
2019-05-12T00:28:09.271Z,6.77
2019-05-12T00:30:42.720Z,8.47
2019-05-12T00:33:12.957Z,4.70
2019-05-12T00:35:43.244Z,6.83
2019-05-12T00:38:13.485Z,5.67
2019-05-12T00:40:43.674Z,8.00
2019-05-12T00:43:13.864Z,6.37
2019-05-12T00:45:44.175Z,7.33
2019-05-12T00:48:14.361Z,7.67
2019-05-12T00:50:44.625Z,9.13
2019-05-12T00:53:14.818Z,6.23
2019-05-12T00:55:44.992Z,7.53
2019-05-12T00:58:15.274Z,9.20
2019-05-12T01:00:48.120Z,10.97
2019-05-12T01:03:18.898Z,7.10
2019-05-12T01:05:49.394Z,8.17
2019-05-12T01:08:19.663Z,10.87
2019-05-12T01:10:49.891Z,8.43
2019-05-12T01:13:20.098Z,8.60
2019-05-12T01:15:50.286Z,9.33
2019-05-12T01:18:20.474Z,12.03
2019-05-12T01:20:50.660Z,9.33
2019-05-12T01:23:23.359Z,13.10
2019-05-12T01:25:52.838Z,9.87
2019-05-12T01:28:23.085Z,8.73
2019-05-12T01:30:54.410Z,9.53
2019-05-12T01:33:24.765Z,11.40
2019-05-12T01:35:54.968Z,9.57
2019-05-12T01:38:25.147Z,12.00
2019-05-12T01:40:58.186Z,14.07
2019-05-12T01:43:27.799Z,11.67
2019-05-12T01:45:58.882Z,11.17
2019-05-12T01:48:30.514Z,13.07
2019-05-12T01:51:00.714Z,11.90
2019-05-12T01:53:30.968Z,10.53
2019-05-12T01:56:01.251Z,12.67
2019-05-12T01:58:31.426Z,12.00
2019-05-12T02:01:03.104Z,12.20
2019-05-12T02:03:33.381Z,14.53
2019-05-12T02:06:03.673Z,12.63
2019-05-12T02:08:47.757Z,11.93
2019-05-12T02:11:33.350Z,11.77
2019-05-12T02:14:04.907Z,15.00
2019-05-12T02:16:35.279Z,11.60
2019-05-12T02:19:05.459Z,12.30
2019-05-12T02:21:38.052Z,13.17
2019-05-12T02:24:08.017Z,12.43
2019-05-12T02:26:39.629Z,13.07
2019-05-12T02:29:09.802Z,14.00
2019-05-12T02:31:40.201Z,15.17
2019-05-12T02:34:10.371Z,12.90
2019-05-12T02:36:40.589Z,13.07
2019-05-12T02:39:10.858Z,17.10
2019-05-12T02:41:41.077Z,13.30
2019-05-12T02:44:14.633Z,14.67
2019-05-12T02:46:44.651Z,18.90
2019-05-12T02:49:15.815Z,14.50
2019-05-12T02:51:46.215Z,19.03
2019-05-12T02:54:16.913Z,15.97
2019-05-12T02:56:47.826Z,15.63
2019-05-12T02:59:20.775Z,15.17
2019-05-12T03:01:55.034Z,16.37
2019-05-12T03:04:26.822Z,17.60
2019-05-12T03:06:57.145Z,16.77
2019-05-12T03:09:27.472Z,16.07
2019-05-12T03:12:00.379Z,17.77
2019-05-12T03:14:30.713Z,15.77
2019-05-12T03:17:00.976Z,14.80
2019-05-12T03:19:34.417Z,16.50
2019-05-12T03:22:05.031Z,17.27
2019-05-12T03:24:34.999Z,16.00
2019-05-12T03:27:05.198Z,16.27
2019-05-12T03:29:35.383Z,17.70
2019-05-12T03:32:08.326Z,17.97
2019-05-12T03:34:38.588Z,19.80
2019-05-12T03:37:09.264Z,14.57
2019-05-12T03:39:39.548Z,16.40
2019-05-12T03:42:09.837Z,18.77
2019-05-12T03:44:40.107Z,17.37
2019-05-12T03:47:10.407Z,15.80
2019-05-12T03:49:40.580Z,18.43
2019-05-12T03:52:10.883Z,19.13
2019-05-12T03:54:41.058Z,17.83
2019-05-12T03:57:11.312Z,18.83
2019-05-12T03:59:44.791Z,16.57
2019-05-12T04:02:15.101Z,16.47
2019-05-12T04:04:45.543Z,15.97
2019-05-12T04:07:15.794Z,16.97
2019-05-12T04:09:45.972Z,18.87
2019-05-12T04:12:16.190Z,16.63
2019-05-12T04:14:46.440Z,17.40
2019-05-12T04:17:16.721Z,15.50
2019-05-12T04:19:46.910Z,22.13
2019-05-12T04:22:17.206Z,18.00
2019-05-12T04:24:47.407Z,16.70
2019-05-12T04:27:17.647Z,20.03
2019-05-12T04:29:47.925Z,17.50
2019-05-12T04:32:18.094Z,17.40
2019-05-12T04:34:48.305Z,17.07
2019-05-12T04:37:18.551Z,19.80
2019-05-12T04:39:48.802Z,19.03
2019-05-12T04:42:18.982Z,20.63
2019-05-12T04:44:49.170Z,16.83
2019-05-12T04:47:19.367Z,17.67
2019-05-12T04:49:49.637Z,16.27
2019-05-12T04:52:19.907Z,18.07
2019-05-12T04:54:50.097Z,15.07
2019-05-12T04:57:21.204Z,16.43
2019-05-12T04:59:54.229Z,14.27
2019-05-12T05:02:25.095Z,14.90
2019-05-12T05:04:55.520Z,20.57
2019-05-12T05:07:25.705Z,16.97
2019-05-12T05:09:55.949Z,15.27
2019-05-12T05:12:26.158Z,15.00
2019-05-12T05:14:56.492Z,13.57
2019-05-12T05:17:26.702Z,15.40
2019-05-12T05:19:56.993Z,14.60
2019-05-12T05:22:27.166Z,17.47
2019-05-12T05:24:57.365Z,16.10
2019-05-12T05:27:27.647Z,14.00
2019-05-12T05:29:57.880Z,13.03
2019-05-12T05:32:28.080Z,15.37
2019-05-12T05:34:58.272Z,14.47
2019-05-12T05:37:30.819Z,21.43
2019-05-12T05:40:00.399Z,13.10
2019-05-12T05:42:32.779Z,14.87
2019-05-12T05:45:04.618Z,15.03
2019-05-12T05:47:34.521Z,16.97
2019-05-12T05:50:05.212Z,13.53
2019-05-12T05:52:38.659Z,12.67
2019-05-12T05:55:14.498Z,14.27
2019-05-12T05:57:39.500Z,15.80
2019-05-12T06:00:17.453Z,12.33
2019-05-12T06:02:44.170Z,16.33
2019-05-12T06:05:14.438Z,15.00
2019-05-12T06:07:44.921Z,14.33
2019-05-12T06:10:15.150Z,13.17
2019-05-12T06:12:50.541Z,17.80
2019-05-12T06:15:17.244Z,13.50
2019-05-12T06:17:47.498Z,16.77
2019-05-12T06:20:17.692Z,13.83
2019-05-12T06:22:48.584Z,13.00
2019-05-12T06:25:19.829Z,16.87
2019-05-12T06:27:51.173Z,11.67
2019-05-12T06:30:24.130Z,13.23
2019-05-12T06:32:54.626Z,12.93
2019-05-12T06:35:25.107Z,11.77
2019-05-12T06:37:59.931Z,11.60
2019-05-12T06:40:30.706Z,14.17
2019-05-12T06:42:59.143Z,10.07
2019-05-12T06:45:34.083Z,13.00
2019-05-12T06:48:03.262Z,12.83
2019-05-12T06:50:38.711Z,11.23
2019-05-12T06:53:05.499Z,13.03
2019-05-12T06:55:39.008Z,10.60
2019-05-12T06:58:07.650Z,11.90
2019-05-12T07:00:37.926Z,13.93
2019-05-12T07:03:11.517Z,9.80
2019-05-12T07:05:43.228Z,10.67
2019-05-12T07:08:20.019Z,10.93
2019-05-12T07:10:51.480Z,13.03
2019-05-12T07:13:23.374Z,9.67
2019-05-12T07:15:49.596Z,14.10
2019-05-12T07:18:24.359Z,11.60
2019-05-12T07:20:53.777Z,10.77
2019-05-12T07:23:25.839Z,10.97
2019-05-12T07:25:56.076Z,11.20
2019-05-12T07:28:30.389Z,11.70
2019-05-12T07:30:58.239Z,11.73
2019-05-12T07:33:32.872Z,13.37
2019-05-12T07:36:02.103Z,8.43
2019-05-12T07:38:34.448Z,10.60
2019-05-12T07:41:08.842Z,13.30
2019-05-12T07:43:38.122Z,9.70
2019-05-12T07:46:08.433Z,8.47
2019-05-12T07:48:40.251Z,11.23
2019-05-12T07:51:10.573Z,11.23
2019-05-12T07:53:40.971Z,9.07
2019-05-12T07:56:14.456Z,13.97
2019-05-12T07:58:48.417Z,8.87
2019-05-12T08:01:17.404Z,8.83
2019-05-12T08:03:51.041Z,11.40
2019-05-12T08:06:19.612Z,8.93
2019-05-12T08:08:50.490Z,11.43
2019-05-12T08:11:23.628Z,7.73
2019-05-12T08:13:54.337Z,8.80
2019-05-12T08:16:28.604Z,10.20
2019-05-12T08:18:56.698Z,9.70
2019-05-12T08:21:26.934Z,10.10
2019-05-12T08:23:57.234Z,7.73
2019-05-12T08:26:27.488Z,11.73
2019-05-12T08:28:57.835Z,9.13
2019-05-12T08:31:33.258Z,8.23
2019-05-12T08:33:59.988Z,9.23
2019-05-12T08:36:30.293Z,11.13
2019-05-12T08:39:03.834Z,10.63
2019-05-12T08:41:34.150Z,8.83
2019-05-12T08:44:04.821Z,10.20
2019-05-12T08:46:35.103Z,8.33
2019-05-12T08:49:05.551Z,8.30
2019-05-12T08:51:35.990Z,9.10
2019-05-12T08:54:08.122Z,10.33
2019-05-12T08:56:38.244Z,9.23
2019-05-12T08:59:09.488Z,8.73
2019-05-12T09:01:40.411Z,8.73
2019-05-12T09:04:15.023Z,11.40
2019-05-12T09:06:43.561Z,9.37
2019-05-12T09:09:14.061Z,7.17
2019-05-12T09:11:44.345Z,9.23
2019-05-12T09:14:14.892Z,6.30
2019-05-12T09:16:45.131Z,10.73
2019-05-12T09:19:20.396Z,6.60
2019-05-12T09:21:47.441Z,6.17
2019-05-12T09:24:21.836Z,10.77
2019-05-12T09:26:49.738Z,7.50
2019-05-12T09:29:20.008Z,8.57
2019-05-12T09:31:50.654Z,7.23
2019-05-12T09:34:23.386Z,8.47
2019-05-12T09:36:59.569Z,6.03
2019-05-12T09:39:24.970Z,7.83
2019-05-12T09:41:55.395Z,9.23
2019-05-12T09:44:30.292Z,7.40
2019-05-12T09:46:57.723Z,8.83
2019-05-12T09:49:30.923Z,8.97
2019-05-12T09:52:00.065Z,8.80
2019-05-12T09:54:35.223Z,7.23
2019-05-12T09:57:04.272Z,9.83
2019-05-12T09:59:34.315Z,6.70
2019-05-12T10:02:04.602Z,7.37
2019-05-12T10:04:35.332Z,7.60
2019-05-12T10:07:05.654Z,9.50
2019-05-12T10:09:35.944Z,11.20
2019-05-12T10:12:06.242Z,8.20
2019-05-12T10:14:40.651Z,11.93
2019-05-12T10:17:08.369Z,7.27
2019-05-12T10:19:38.570Z,5.97
2019-05-12T10:22:08.894Z,7.13
2019-05-12T10:24:43.145Z,6.23
2019-05-12T10:27:11.124Z,5.67
2019-05-12T10:29:43.570Z,6.53
2019-05-12T10:32:13.451Z,6.97
2019-05-12T10:34:44.415Z,11.70
2019-05-12T10:37:19.211Z,5.47
2019-05-12T10:39:46.705Z,5.97
2019-05-12T10:42:17.033Z,5.80
2019-05-12T10:44:47.315Z,6.77
2019-05-12T10:47:17.488Z,4.67
2019-05-12T10:49:47.794Z,8.17
2019-05-12T10:52:18.008Z,5.93
2019-05-12T10:54:48.196Z,11.47
2019-05-12T10:57:18.508Z,9.57
2019-05-12T10:59:48.877Z,9.17
2019-05-12T11:02:20.576Z,7.20
2019-05-12T11:04:51.077Z,8.07
2019-05-12T11:07:23.006Z,6.17
2019-05-12T11:09:54.356Z,7.63
2019-05-12T11:12:29.040Z,6.60
2019-05-12T11:15:01.283Z,7.07
2019-05-12T11:17:46.007Z,6.00
2019-05-12T11:20:14.168Z,8.40
2019-05-12T11:22:44.545Z,7.30
2019-05-12T11:25:14.765Z,8.03
2019-05-12T11:27:45.022Z,5.50
2019-05-12T11:30:15.759Z,6.67
2019-05-12T11:32:45.995Z,5.70
2019-05-12T11:35:16.199Z,10.53
2019-05-12T11:37:46.546Z,7.87
2019-05-12T11:40:16.758Z,11.13
2019-05-12T11:42:58.978Z,4.47
2019-05-12T11:45:18.915Z,7.03
2019-05-12T11:47:50.117Z,5.37
2019-05-12T11:50:20.393Z,7.53
2019-05-12T11:52:51.193Z,6.63
2019-05-12T11:55:29.796Z,4.87
2019-05-12T11:57:54.558Z,6.63
2019-05-12T12:00:26.569Z,5.50
2019-05-12T12:02:56.854Z,4.27
2019-05-12T12:05:27.815Z,4.83
2019-05-12T12:07:58.152Z,7.23
2019-05-12T12:10:29.250Z,7.40
2019-05-12T12:13:00.754Z,5.47
2019-05-12T12:15:30.933Z,4.63
2019-05-12T12:18:11.734Z,4.77
2019-05-12T12:20:33.777Z,5.33
2019-05-12T12:23:09.508Z,7.07
2019-05-12T12:25:37.477Z,6.10
2019-05-12T12:28:07.838Z,7.33
2019-05-12T12:30:38.208Z,7.10
2019-05-12T12:33:08.485Z,6.13
2019-05-12T12:35:38.785Z,4.97
2019-05-12T12:38:09.089Z,6.90
2019-05-12T12:40:39.365Z,6.27
2019-05-12T12:43:09.663Z,6.33
2019-05-12T12:45:45.450Z,5.63
2019-05-12T12:48:19.331Z,5.77
2019-05-12T12:50:47.630Z,7.57
2019-05-12T12:53:17.875Z,7.77
2019-05-12T12:55:48.256Z,5.20
2019-05-12T12:58:21.124Z,7.83
2019-05-12T13:00:54.520Z,6.60
2019-05-12T13:03:27.711Z,3.67
2019-05-12T13:05:54.392Z,7.97
2019-05-12T13:08:24.881Z,4.37
2019-05-12T13:10:55.209Z,4.13
2019-05-12T13:13:25.552Z,4.17
2019-05-12T13:15:55.813Z,6.10
2019-05-12T13:18:32.967Z,6.50
2019-05-12T13:20:58.287Z,6.53
2019-05-12T13:23:39.247Z,3.20
2019-05-12T13:26:00.446Z,3.67
2019-05-12T13:28:30.731Z,7.23
2019-05-12T13:31:08.969Z,4.67
2019-05-12T13:33:33.858Z,5.40
2019-05-12T13:36:04.483Z,3.77
2019-05-12T13:38:38.737Z,2.90
2019-05-12T13:41:09.574Z,5.63
2019-05-12T13:43:38.676Z,4.83
2019-05-12T13:46:08.958Z,4.40
2019-05-12T13:48:39.254Z,3.63
2019-05-12T13:51:15.074Z,2.73
2019-05-12T13:53:46.431Z,6.47
2019-05-12T13:56:13.744Z,3.03
2019-05-12T13:58:45.904Z,2.47
2019-05-12T14:01:20.478Z,3.00
2019-05-12T14:03:50.709Z,3.57
2019-05-12T14:06:23.193Z,4.67
2019-05-12T14:08:53.819Z,5.97
2019-05-12T14:11:24.298Z,5.73
2019-05-12T14:13:54.577Z,2.30
2019-05-12T14:16:24.846Z,5.20
2019-05-12T14:18:57.158Z,3.87
2019-05-12T14:21:27.066Z,2.63
2019-05-12T14:23:57.291Z,3.83
2019-05-12T14:26:27.632Z,4.60
2019-05-12T14:28:57.924Z,5.87
2019-05-12T14:31:35.090Z,4.20
2019-05-12T14:34:00.192Z,3.80
2019-05-12T14:36:32.028Z,3.03
2019-05-12T14:39:08.454Z,4.60
2019-05-12T14:41:34.531Z,3.27
2019-05-12T14:44:04.916Z,4.50
2019-05-12T14:46:40.181Z,6.63
2019-05-12T14:49:07.499Z,2.73
2019-05-12T14:51:37.792Z,4.63
2019-05-12T14:54:08.071Z,2.97
2019-05-12T14:56:38.306Z,3.20
2019-05-12T14:59:08.634Z,2.97
2019-05-12T15:01:53.659Z,3.37
2019-05-12T15:04:13.158Z,4.70
2019-05-12T15:06:44.306Z,3.57
2019-05-12T15:09:20.175Z,3.97
2019-05-12T15:11:46.640Z,4.67
2019-05-12T15:14:16.944Z,2.77
2019-05-12T15:16:47.232Z,4.80
2019-05-12T15:19:20.723Z,4.93
2019-05-12T15:21:49.472Z,2.77
2019-05-12T15:24:19.682Z,2.93
2019-05-12T15:26:50.604Z,2.80
2019-05-12T15:29:23.421Z,3.37
2019-05-12T15:31:56.660Z,3.40
2019-05-12T15:34:25.810Z,3.30
2019-05-12T15:36:58.420Z,2.00
2019-05-12T15:39:28.069Z,2.73
2019-05-12T15:41:58.731Z,2.23
2019-05-12T15:44:31.550Z,3.57
2019-05-12T15:47:01.116Z,2.83
2019-05-12T15:49:33.456Z,3.33
2019-05-12T15:52:03.706Z,3.20
2019-05-12T15:54:36.259Z,5.30
2019-05-12T15:57:05.863Z,1.80
2019-05-12T15:59:36.166Z,2.47
2019-05-12T16:02:14.609Z,5.43
2019-05-12T16:04:42.891Z,2.20
2019-05-12T16:07:10.372Z,3.00
2019-05-12T16:09:40.672Z,2.20
2019-05-12T16:12:21.948Z,4.83
2019-05-12T16:14:44.245Z,3.67
2019-05-12T16:17:16.801Z,2.23
2019-05-12T16:19:46.626Z,4.63
2019-05-12T16:22:16.898Z,3.33
2019-05-12T16:24:48.837Z,4.53
2019-05-12T16:27:19.166Z,4.13
2019-05-12T16:29:50.149Z,1.83
2019-05-12T16:32:26.832Z,4.13
2019-05-12T16:34:54.139Z,3.07
2019-05-12T16:37:31.065Z,2.13
2019-05-12T16:39:56.567Z,3.23
2019-05-12T16:42:26.842Z,2.27
2019-05-12T16:45:05.957Z,4.23
2019-05-12T16:47:30.314Z,2.40
2019-05-12T16:50:06.325Z,2.33
2019-05-12T16:52:40.489Z,3.40
2019-05-12T16:55:05.567Z,4.10
2019-05-12T16:57:35.889Z,3.63
2019-05-12T17:00:07.188Z,1.80
2019-05-12T17:02:41.822Z,3.43
2019-05-12T17:05:15.617Z,1.43
2019-05-12T17:07:43.903Z,3.63
2019-05-12T17:10:16.631Z,2.63
2019-05-12T17:12:48.410Z,3.83
2019-05-12T17:15:17.733Z,2.77
2019-05-12T17:17:50.660Z,7.00
2019-05-12T17:20:20.059Z,2.23
2019-05-12T17:22:54.716Z,3.37
2019-05-12T17:25:23.912Z,3.20
2019-05-12T17:27:58.196Z,3.23
2019-05-12T17:30:26.395Z,3.23
2019-05-12T17:33:00.902Z,2.70
2019-05-12T17:35:31.628Z,13.60
2019-05-12T17:38:00.604Z,4.90
2019-05-12T17:40:30.975Z,7.67
2019-05-12T17:43:09.143Z,4.47
2019-05-12T17:45:33.450Z,3.00
2019-05-12T17:48:07.400Z,4.67
2019-05-12T17:50:40.537Z,3.97
2019-05-12T17:53:07.669Z,3.70
2019-05-12T17:55:42.721Z,3.87
2019-05-12T17:58:09.922Z,3.30
2019-05-12T18:00:41.328Z,2.67
2019-05-12T18:03:21.628Z,2.63
2019-05-12T18:05:47.909Z,3.63
2019-05-12T18:08:16.334Z,5.77
2019-05-12T18:10:48.068Z,3.33
2019-05-12T18:13:23.041Z,2.30
2019-05-12T18:15:50.595Z,2.80
2019-05-12T18:18:24.248Z,4.13
2019-05-12T18:20:55.537Z,3.00
2019-05-12T18:23:26.223Z,1.50
2019-05-12T18:25:56.889Z,3.60
2019-05-12T18:28:29.193Z,2.47
2019-05-12T18:30:59.171Z,3.77
2019-05-12T18:33:36.717Z,5.33
2019-05-12T18:36:04.469Z,2.43
2019-05-12T18:38:35.421Z,2.03
2019-05-12T18:41:06.123Z,4.13
2019-05-12T18:43:39.581Z,2.60
2019-05-12T18:46:09.890Z,2.80
2019-05-12T18:48:40.173Z,3.27
2019-05-12T18:51:13.829Z,3.10
2019-05-12T18:53:43.863Z,3.67
2019-05-12T18:56:19.747Z,2.83
2019-05-12T18:58:46.906Z,4.27
2019-05-12T19:01:17.580Z,4.40
2019-05-12T19:03:51.030Z,6.37
2019-05-12T19:06:19.878Z,4.73
2019-05-12T19:08:50.183Z,4.60
2019-05-12T19:11:23.706Z,6.90
2019-05-12T19:13:57.027Z,6.50
2019-05-12T19:16:24.505Z,6.77
2019-05-12T19:18:55.748Z,4.47
2019-05-12T19:21:26.246Z,4.50
2019-05-12T19:23:56.701Z,5.27
2019-05-12T19:26:27.005Z,2.50
2019-05-12T19:28:58.046Z,3.30
2019-05-12T19:31:29.821Z,4.00
2019-05-12T19:34:15.639Z,4.37
2019-05-12T19:36:38.119Z,2.80
2019-05-12T19:39:06.227Z,2.67
2019-05-12T19:41:38.047Z,2.90
2019-05-12T19:44:08.597Z,3.17
2019-05-12T19:46:39.825Z,5.77
2019-05-12T19:49:11.393Z,3.80
2019-05-12T19:51:43.856Z,2.83
2019-05-12T19:54:14.059Z,5.20
2019-05-12T19:56:44.518Z,5.30
2019-05-12T19:59:14.892Z,5.57
2019-05-12T20:01:45.190Z,5.70
2019-05-12T20:04:29.664Z,3.50
2019-05-12T20:06:47.480Z,3.67
2019-05-12T20:09:17.820Z,5.00
2019-05-12T20:11:48.104Z,4.47
2019-05-12T20:14:21.344Z,4.90
2019-05-12T20:16:50.488Z,5.07
2019-05-12T20:19:25.540Z,5.67
2019-05-12T20:21:54.334Z,9.73
2019-05-12T20:24:24.761Z,7.73
2019-05-12T20:26:55.020Z,3.80
2019-05-12T20:29:33.517Z,3.53
2019-05-12T20:31:57.399Z,5.23
2019-05-12T20:34:27.735Z,5.30
2019-05-12T20:36:59.142Z,2.60
2019-05-12T20:39:30.077Z,4.07
2019-05-12T20:42:02.412Z,3.90
2019-05-12T20:44:34.351Z,4.20
2019-05-12T20:47:06.332Z,3.67
2019-05-12T20:49:36.402Z,6.30
2019-05-12T20:52:09.594Z,4.53
2019-05-12T20:54:38.733Z,5.47
2019-05-12T20:57:09.003Z,3.20
2019-05-12T20:59:39.301Z,5.33
2019-05-12T21:02:09.579Z,5.37
2019-05-12T21:04:39.944Z,3.80
2019-05-12T21:07:14.058Z,2.63
2019-05-12T21:09:44.131Z,2.33
2019-05-12T21:12:14.206Z,3.27
2019-05-12T21:14:51.417Z,3.67
2019-05-12T21:17:18.477Z,7.77
2019-05-12T21:19:56.202Z,6.43
2019-05-12T21:22:20.858Z,8.30
2019-05-12T21:24:53.249Z,2.40
2019-05-12T21:27:23.118Z,2.47
2019-05-12T21:29:54.105Z,3.87
2019-05-12T21:32:24.515Z,3.67
2019-05-12T21:34:58.201Z,5.43
2019-05-12T21:37:29.815Z,3.17
2019-05-12T21:40:03.667Z,5.80
2019-05-12T21:42:33.962Z,7.70
2019-05-12T21:45:04.815Z,4.37
2019-05-12T21:47:42.669Z,5.57
2019-05-12T21:50:07.465Z,5.30
2019-05-12T21:52:39.261Z,4.47
2019-05-12T21:55:13.567Z,3.47
2019-05-12T21:57:43.771Z,3.97
2019-05-12T22:00:24.330Z,4.07
2019-05-12T22:02:56.500Z,3.57
2019-05-12T22:05:46.978Z,1.93
2019-05-12T22:08:03.189Z,4.23
2019-05-12T22:10:34.426Z,2.27
2019-05-12T22:13:09.002Z,3.07
2019-05-12T22:15:37.234Z,3.50
2019-05-12T22:18:07.579Z,2.90
2019-05-12T22:20:37.885Z,2.47
2019-05-12T22:23:11.944Z,3.73
2019-05-12T22:25:40.184Z,3.57
2019-05-12T22:28:10.575Z,4.17
2019-05-12T22:30:40.963Z,4.27
2019-05-12T22:33:14.032Z,3.03
2019-05-12T22:35:44.596Z,3.87
2019-05-12T22:38:20.869Z,2.70
2019-05-12T22:40:49.215Z,2.93
2019-05-12T22:43:18.781Z,5.87
2019-05-12T22:45:49.535Z,4.10
2019-05-12T22:48:19.820Z,3.17
2019-05-12T22:50:50.060Z,4.70
2019-05-12T22:53:25.893Z,3.97
2019-05-12T22:55:53.426Z,2.10
2019-05-12T22:58:25.505Z,2.20
2019-05-12T23:01:00.648Z,4.97
2019-05-12T23:03:27.811Z,5.00
2019-05-12T23:06:01.563Z,2.73
2019-05-12T23:08:30.166Z,2.23
2019-05-12T23:11:00.542Z,4.60
2019-05-12T23:13:32.171Z,3.17
2019-05-12T23:16:03.420Z,3.23
2019-05-12T23:18:33.908Z,2.30
2019-05-12T23:21:12.650Z,2.17
2019-05-12T23:23:36.145Z,1.87
2019-05-12T23:26:06.373Z,1.70
2019-05-12T23:28:40.531Z,6.87
2019-05-12T23:31:08.504Z,2.67
2019-05-12T23:33:38.792Z,4.00
2019-05-12T23:36:14.532Z,3.27
2019-05-12T23:38:41.044Z,2.50
2019-05-12T23:41:13.422Z,1.93
2019-05-12T23:43:43.188Z,5.40
2019-05-12T23:46:13.484Z,3.33
2019-05-12T23:48:44.030Z,1.93
2019-05-12T23:51:14.373Z,3.50
2019-05-12T23:53:44.620Z,3.47
2019-05-12T23:56:14.837Z,3.33
2019-05-12T23:58:45.082Z,3.90
